createdAt,value
2023-03-18T00:25:09.108Z,11.79
2023-03-18T00:27:39.271Z,11.69
2023-03-18T00:30:09.164Z,11.91
2023-03-18T00:32:38.856Z,11.75
2023-03-18T00:35:07.818Z,11.62
2023-03-18T00:37:36.666Z,11.37
2023-03-18T00:40:10.898Z,11.70
2023-03-18T00:42:48.240Z,11.65
2023-03-18T00:45:18.558Z,11.67
2023-03-18T00:47:48.582Z,11.46
2023-03-18T00:50:16.813Z,11.32
2023-03-18T00:52:46.584Z,11.61
2023-03-18T00:55:16.321Z,11.36
2023-03-18T00:57:45.505Z,11.53
2023-03-18T01:00:17.085Z,11.91
2023-03-18T01:02:46.088Z,12.01
2023-03-18T01:05:14.754Z,12.24
2023-03-18T01:07:43.817Z,12.53
2023-03-18T01:10:14.627Z,12.57
2023-03-18T01:12:46.724Z,12.55
2023-03-18T01:15:17.720Z,12.04
2023-03-18T01:17:48.314Z,11.92
2023-03-18T01:20:21.635Z,11.72
2023-03-18T01:22:51.964Z,11.58
2023-03-18T01:25:20.448Z,11.76
2023-03-18T01:27:50.261Z,11.54
2023-03-18T01:30:19.631Z,11.78
2023-03-18T01:32:50.642Z,11.54
2023-03-18T01:35:20.264Z,11.62
2023-03-18T01:37:48.959Z,11.96
2023-03-18T01:40:18.317Z,11.85
2023-03-18T01:42:58.924Z,11.75
2023-03-18T01:45:31.280Z,11.83
2023-03-18T01:48:00.837Z,11.64
2023-03-18T01:50:35.093Z,11.84
2023-03-18T01:53:07.681Z,11.87
2023-03-18T01:55:38.434Z,11.66
2023-03-18T01:58:14.971Z,11.44
2023-03-18T02:00:48.235Z,11.62
2023-03-18T02:03:19.202Z,11.83
2023-03-18T02:05:51.274Z,11.79
2023-03-18T02:08:20.355Z,11.79
2023-03-18T02:10:49.088Z,11.66
2023-03-18T02:13:19.821Z,11.83
2023-03-18T02:15:53.429Z,11.78
2023-03-18T02:18:33.467Z,11.67
2023-03-18T02:21:16.618Z,11.64
2023-03-18T02:23:54.085Z,11.39
2023-03-18T02:26:32.646Z,11.29
2023-03-18T02:29:05.987Z,11.10
2023-03-18T02:31:38.042Z,11.30
2023-03-18T02:34:10.425Z,11.18
2023-03-18T02:36:41.461Z,10.98
2023-03-18T02:39:14.163Z,11.53
2023-03-18T02:41:46.094Z,11.63
2023-03-18T02:44:19.222Z,11.32
2023-03-18T02:46:55.707Z,11.45
2023-03-18T02:49:26.306Z,11.47
2023-03-18T02:51:55.075Z,11.23
2023-03-18T02:54:24.800Z,11.38
2023-03-18T02:56:53.686Z,11.43
2023-03-18T02:59:23.985Z,11.47
2023-03-18T03:01:54.876Z,11.52
2023-03-18T03:04:25.520Z,11.54
2023-03-18T03:06:56.757Z,11.43
2023-03-18T03:09:24.981Z,11.62
2023-03-18T03:11:57.080Z,11.54
2023-03-18T03:14:27.559Z,11.27
2023-03-18T03:16:55.864Z,11.50
2023-03-18T03:19:24.527Z,11.19
2023-03-18T03:21:53.868Z,11.12
2023-03-18T03:24:23.617Z,10.91
2023-03-18T03:26:51.701Z,10.98
2023-03-18T03:29:20.377Z,11.19
2023-03-18T03:31:53.190Z,11.21
2023-03-18T03:34:21.023Z,11.01
2023-03-18T03:36:49.900Z,11.16
2023-03-18T03:39:19.101Z,11.04
2023-03-18T03:41:46.991Z,10.75
2023-03-18T03:44:14.871Z,11.00
2023-03-18T03:46:42.933Z,11.00
2023-03-18T03:49:14.268Z,11.05
2023-03-18T03:51:43.740Z,10.76
2023-03-18T03:54:13.873Z,10.45
2023-03-18T03:56:43.545Z,10.77
2023-03-18T03:59:11.724Z,10.67
2023-03-18T04:01:40.631Z,10.84
2023-03-18T04:04:11.715Z,10.92
2023-03-18T04:06:41.127Z,10.64
2023-03-18T04:09:09.714Z,10.62
2023-03-18T04:11:39.064Z,10.78
2023-03-18T04:14:06.980Z,10.74
2023-03-18T04:16:35.550Z,10.56
2023-03-18T04:19:03.598Z,10.45
2023-03-18T04:21:32.281Z,10.53
2023-03-18T04:24:04.169Z,10.63
2023-03-18T04:26:32.911Z,10.41
2023-03-18T04:29:00.801Z,10.43
2023-03-18T04:31:29.612Z,10.40
2023-03-18T04:33:57.823Z,10.22
2023-03-18T04:36:27.473Z,10.03
2023-03-18T04:38:57.119Z,10.06
2023-03-18T04:41:27.104Z,10.11
2023-03-18T04:43:55.139Z,9.99
2023-03-18T04:46:23.818Z,10.15
2023-03-18T04:48:53.635Z,9.55
2023-03-18T04:51:23.668Z,9.71
2023-03-18T04:53:53.422Z,9.92
2023-03-18T04:56:22.279Z,9.73
2023-03-18T04:58:52.843Z,9.71
2023-03-18T05:01:21.934Z,9.80
2023-03-18T05:03:50.754Z,9.63
2023-03-18T05:06:27.091Z,9.80
2023-03-18T05:08:55.260Z,9.83
2023-03-18T05:11:23.339Z,9.95
2023-03-18T05:13:56.106Z,10.01
2023-03-18T05:16:26.620Z,10.04
2023-03-18T05:18:54.534Z,9.76
2023-03-18T05:21:22.894Z,10.06
2023-03-18T05:23:53.485Z,10.17
2023-03-18T05:26:23.015Z,10.23
2023-03-18T05:28:55.079Z,9.98
2023-03-18T05:31:24.812Z,10.11
2023-03-18T05:33:53.101Z,10.17
2023-03-18T05:36:22.036Z,10.07
2023-03-18T05:38:53.995Z,10.04
2023-03-18T05:41:24.960Z,9.97
2023-03-18T05:43:57.990Z,10.03
2023-03-18T05:46:28.383Z,10.14
2023-03-18T05:48:58.509Z,10.22
2023-03-18T05:51:28.312Z,9.98
2023-03-18T05:53:56.621Z,9.86
2023-03-18T05:56:26.745Z,9.96
2023-03-18T05:58:58.961Z,10.29
2023-03-18T06:01:31.870Z,10.25
2023-03-18T06:04:01.406Z,10.29
2023-03-18T06:06:31.039Z,10.35
2023-03-18T06:08:58.980Z,10.40
2023-03-18T06:11:28.230Z,10.49
2023-03-18T06:14:00.289Z,10.37
2023-03-18T06:16:31.744Z,10.40
2023-03-18T06:19:00.005Z,10.14
2023-03-18T06:21:28.821Z,10.48
2023-03-18T06:23:57.650Z,10.52
2023-03-18T06:26:25.795Z,10.80
2023-03-18T06:28:54.865Z,10.73
2023-03-18T06:31:24.656Z,10.66
2023-03-18T06:33:55.305Z,10.73
2023-03-18T06:36:23.932Z,10.83
2023-03-18T06:38:53.700Z,10.69
2023-03-18T06:41:22.991Z,10.87
2023-03-18T06:43:54.112Z,10.63
2023-03-18T06:46:30.519Z,10.92
2023-03-18T06:49:00.381Z,10.85
2023-03-18T06:51:31.419Z,11.10
2023-03-18T06:54:00.030Z,10.92
2023-03-18T06:56:35.325Z,10.72
2023-03-18T06:59:03.761Z,10.67
2023-03-18T07:01:35.868Z,10.46
2023-03-18T07:04:08.897Z,10.70
2023-03-18T07:06:37.505Z,10.52
2023-03-18T07:09:11.236Z,10.35
2023-03-18T07:11:40.784Z,10.70
2023-03-18T07:14:10.884Z,10.50
2023-03-18T07:16:40.754Z,10.26
2023-03-18T07:19:11.284Z,10.17
2023-03-18T07:21:43.735Z,10.15
2023-03-18T07:24:14.398Z,10.26
2023-03-18T07:26:43.957Z,10.53
2023-03-18T07:29:13.177Z,10.72
2023-03-18T07:31:44.977Z,10.81
2023-03-18T07:34:15.078Z,11.01
2023-03-18T07:36:45.739Z,11.49
2023-03-18T07:39:17.061Z,11.48
2023-03-18T07:41:47.138Z,11.59
2023-03-18T07:44:15.804Z,11.70
2023-03-18T07:46:47.542Z,12.15
2023-03-18T07:49:20.131Z,12.19
2023-03-18T07:51:50.759Z,12.27
2023-03-18T07:54:22.739Z,12.44
2023-03-18T07:56:52.815Z,12.43
2023-03-18T07:59:27.633Z,12.56
2023-03-18T08:01:58.680Z,12.51
2023-03-18T08:04:32.145Z,12.43
2023-03-18T08:07:01.641Z,11.98
2023-03-18T08:09:52.423Z,12.12
2023-03-18T08:12:22.691Z,12.13
2023-03-18T08:14:54.284Z,11.80
2023-03-18T08:17:24.839Z,12.26
2023-03-18T08:19:53.036Z,12.72
2023-03-18T08:22:22.302Z,12.52
2023-03-18T08:24:55.417Z,12.94
2023-03-18T08:27:23.703Z,12.97
2023-03-18T08:29:53.777Z,13.23
2023-03-18T08:32:28.897Z,13.41
2023-03-18T08:34:58.858Z,13.65
2023-03-18T08:37:31.909Z,13.43
2023-03-18T08:40:02.460Z,13.48
2023-03-18T08:42:34.883Z,13.88
2023-03-18T08:45:13.560Z,13.95
2023-03-18T08:47:46.363Z,14.08
2023-03-18T08:50:16.388Z,14.05
2023-03-18T08:52:45.510Z,14.14
2023-03-18T08:55:14.673Z,14.33
2023-03-18T08:57:43.924Z,14.25
2023-03-18T09:00:17.466Z,14.39
2023-03-18T09:02:49.167Z,14.33
2023-03-18T09:05:18.195Z,14.26
2023-03-18T09:07:57.572Z,14.69
2023-03-18T09:10:26.332Z,14.77
2023-03-18T09:12:55.165Z,14.79
2023-03-18T09:15:27.380Z,14.91
2023-03-18T09:18:11.032Z,15.09
2023-03-18T09:20:42.385Z,14.94
2023-03-18T09:23:16.827Z,15.39
2023-03-18T09:25:45.342Z,15.30
2023-03-18T09:28:16.666Z,15.02
2023-03-18T09:30:45.618Z,15.29
2023-03-18T09:33:24.751Z,15.44
2023-03-18T09:35:55.047Z,15.63
2023-03-18T09:38:27.599Z,15.77
2023-03-18T09:41:07.256Z,15.64
2023-03-18T09:43:57.511Z,15.80
2023-03-18T09:46:34.308Z,16.10
2023-03-18T09:49:41.902Z,15.94
2023-03-18T09:52:21.561Z,16.24
2023-03-18T09:55:00.007Z,16.21
2023-03-18T09:57:31.869Z,16.33
2023-03-18T10:00:19.053Z,16.40
2023-03-18T10:02:57.354Z,16.53
2023-03-18T10:05:51.312Z,16.34
2023-03-18T10:08:26.619Z,16.40
2023-03-18T10:10:54.966Z,16.59
2023-03-18T10:13:29.871Z,16.27
2023-03-18T10:16:04.226Z,16.42
2023-03-18T10:18:34.586Z,16.61
2023-03-18T10:21:20.229Z,17.00
2023-03-18T10:23:57.141Z,16.71
2023-03-18T10:26:33.413Z,16.84
2023-03-18T10:29:14.653Z,17.07
2023-03-18T10:32:00.225Z,17.05
2023-03-18T10:34:38.877Z,16.90
2023-03-18T10:37:19.041Z,17.24
2023-03-18T10:39:50.861Z,17.11
2023-03-18T10:42:27.292Z,17.09
2023-03-18T10:45:09.697Z,17.12
2023-03-18T10:47:44.578Z,17.45
2023-03-18T10:50:20.360Z,17.68
2023-03-18T10:53:00.570Z,17.81
2023-03-18T10:55:34.530Z,17.83
2023-03-18T10:58:19.658Z,17.70
2023-03-18T11:00:47.658Z,17.95
2023-03-18T11:03:29.566Z,18.26
2023-03-18T11:06:03.051Z,17.85
2023-03-18T11:08:44.569Z,18.65
2023-03-18T11:11:34.193Z,18.23
2023-03-18T11:14:10.118Z,18.12
2023-03-18T11:16:41.677Z,18.12
2023-03-18T11:19:27.959Z,18.14
2023-03-18T11:22:20.694Z,18.56
2023-03-18T11:25:03.308Z,18.76
2023-03-18T11:27:39.627Z,18.66
2023-03-18T11:30:36.333Z,18.89
2023-03-18T11:33:15.359Z,18.51
2023-03-18T11:35:48.299Z,18.56
2023-03-18T11:38:19.356Z,18.96
2023-03-18T11:41:18.549Z,19.22
2023-03-18T11:44:02.105Z,19.53
2023-03-18T11:46:36.380Z,18.62
2023-03-18T11:49:07.070Z,18.79
2023-03-18T11:51:49.581Z,19.12
2023-03-18T11:54:54.075Z,19.42
2023-03-18T11:57:33.388Z,19.57
2023-03-18T12:00:17.704Z,19.76
2023-03-18T12:03:28.968Z,19.71
2023-03-18T12:06:08.822Z,19.83
2023-03-18T12:08:57.632Z,20.31
2023-03-18T12:11:43.268Z,20.30
2023-03-18T12:14:20.408Z,19.50
2023-03-18T12:17:05.444Z,20.00
2023-03-18T12:19:52.100Z,20.31
2023-03-18T12:22:53.105Z,21.02
2023-03-18T12:25:56.963Z,21.27
2023-03-18T12:28:46.021Z,20.52
2023-03-18T12:31:35.376Z,20.23
2023-03-18T12:34:06.759Z,20.34
2023-03-18T12:36:57.581Z,20.33
2023-03-18T12:40:04.452Z,20.72
2023-03-18T12:42:50.539Z,21.01
2023-03-18T12:45:25.666Z,21.09
2023-03-18T12:51:17.449Z,20.90
2023-03-18T12:57:07.360Z,19.85
2023-03-18T12:59:43.909Z,20.29
2023-03-18T13:02:32.057Z,20.73
2023-03-18T13:05:10.165Z,21.07
2023-03-18T13:07:49.051Z,20.67
2023-03-18T13:10:24.785Z,21.06
2023-03-18T13:13:05.836Z,20.59
2023-03-18T13:15:38.480Z,21.15
2023-03-18T13:18:20.234Z,20.71
2023-03-18T15:09:16.312Z,21.49
2023-03-18T15:12:05.075Z,21.44
2023-03-18T15:14:42.319Z,21.54
2023-03-18T15:17:19.277Z,22.20
2023-03-18T15:19:59.916Z,23.46
2023-03-18T15:22:53.092Z,23.07
2023-03-18T15:28:48.100Z,21.78
2023-03-18T15:31:57.652Z,21.31
2023-03-18T15:42:08.350Z,22.86
2023-03-18T15:44:58.515Z,22.58
2023-03-18T15:47:45.482Z,22.10
2023-03-18T15:50:48.685Z,20.73
2023-03-18T15:53:45.463Z,20.37
2023-03-18T15:56:18.730Z,20.28
2023-03-18T15:59:10.983Z,19.84
2023-03-18T16:01:46.673Z,19.17
2023-03-18T16:04:39.241Z,19.15
2023-03-18T16:07:35.147Z,18.86
2023-03-18T16:13:10.947Z,18.81
2023-03-18T16:15:54.636Z,18.63
2023-03-18T16:18:41.296Z,18.90
2023-03-18T16:24:43.983Z,18.87
2023-03-18T16:27:42.997Z,19.04
2023-03-18T16:30:37.304Z,19.08
2023-03-18T16:33:21.927Z,18.89
2023-03-18T16:42:22.964Z,18.88
2023-03-18T19:33:31.025Z,13.59
2023-03-18T19:35:59.216Z,13.88
2023-03-18T19:38:35.916Z,13.77
2023-03-18T19:41:04.718Z,13.57
2023-03-18T19:43:36.249Z,13.52
2023-03-18T19:46:11.077Z,13.64
2023-03-18T19:48:42.036Z,13.40
2023-03-18T19:51:15.479Z,13.64
2023-03-18T19:53:47.913Z,13.75
2023-03-18T19:56:28.548Z,13.43
2023-03-18T19:59:00.335Z,13.63
2023-03-18T20:01:31.084Z,13.40
2023-03-18T20:04:02.640Z,13.34
2023-03-18T20:06:32.461Z,13.29
2023-03-18T20:09:00.868Z,13.42
2023-03-18T20:11:30.372Z,13.35
2023-03-18T20:13:59.481Z,13.25
2023-03-18T20:16:29.525Z,13.19
2023-03-18T20:18:57.647Z,13.12
2023-03-18T20:24:19.236Z,12.79
2023-03-18T20:26:48.677Z,12.79
2023-03-18T20:29:19.865Z,12.69
2023-03-18T20:31:52.189Z,12.55
2023-03-18T20:34:21.051Z,12.31
2023-03-18T20:36:50.110Z,12.27
2023-03-18T20:39:24.424Z,12.26
2023-03-18T20:41:58.396Z,12.31
2023-03-18T20:44:26.332Z,12.04
2023-03-18T20:46:57.237Z,12.30
2023-03-18T20:49:25.812Z,12.25
2023-03-18T20:51:54.123Z,12.28
2023-03-18T20:54:30.424Z,12.35
2023-03-18T20:57:01.993Z,12.24
2023-03-18T20:59:31.312Z,12.39
2023-03-18T21:02:04.542Z,12.40
2023-03-18T21:04:32.619Z,12.29
2023-03-18T21:07:03.885Z,12.49
2023-03-18T21:09:35.792Z,12.42
2023-03-18T21:12:06.489Z,12.47
2023-03-18T21:14:34.725Z,12.19
2023-03-18T21:17:02.693Z,12.05
2023-03-18T21:19:30.787Z,12.31
2023-03-18T21:21:59.928Z,12.32
2023-03-18T21:24:31.806Z,12.35
2023-03-18T21:27:05.202Z,12.33
2023-03-18T21:29:35.188Z,12.36
2023-03-18T21:32:03.463Z,12.43
2023-03-18T21:34:32.140Z,12.41
2023-03-18T21:36:59.998Z,12.44
2023-03-18T21:39:28.177Z,12.47
2023-03-18T21:41:58.105Z,12.53
2023-03-18T21:44:28.049Z,12.48
2023-03-18T21:46:57.409Z,12.48
2023-03-18T21:49:27.597Z,12.43
2023-03-18T21:51:56.646Z,12.27
2023-03-18T21:54:26.682Z,12.26
2023-03-18T21:56:57.685Z,12.26
2023-03-18T21:59:27.141Z,12.38
2023-03-18T22:01:55.429Z,12.41
2023-03-18T22:04:23.427Z,12.50
2023-03-18T22:06:52.718Z,12.50
2023-03-18T22:09:21.011Z,12.42
2023-03-18T22:11:50.735Z,12.53
2023-03-18T22:14:19.188Z,12.57
2023-03-18T22:16:50.549Z,12.32
2023-03-18T22:19:23.529Z,12.61
2023-03-18T22:21:52.722Z,12.66
2023-03-18T22:24:23.387Z,12.66
2023-03-18T22:26:51.719Z,12.61
2023-03-18T22:29:25.368Z,12.55
2023-03-18T22:31:55.730Z,12.50
2023-03-18T22:34:28.008Z,12.65
2023-03-18T22:36:56.797Z,12.51
2023-03-18T22:39:25.064Z,12.67
2023-03-18T22:41:53.509Z,12.72
2023-03-18T22:44:25.516Z,12.62
2023-03-18T22:46:56.544Z,12.80
2023-03-18T22:49:27.570Z,12.84
2023-03-18T22:51:56.047Z,12.83
2023-03-18T22:54:24.576Z,12.77
2023-03-18T22:56:52.826Z,12.66
2023-03-18T22:59:21.168Z,12.58
2023-03-18T23:01:50.898Z,12.61
2023-03-18T23:04:20.328Z,12.35
2023-03-18T23:06:48.404Z,12.69
2023-03-18T23:09:16.772Z,12.90
2023-03-18T23:11:46.957Z,12.64
2023-03-18T23:14:15.017Z,12.82
2023-03-18T23:16:43.791Z,12.77
2023-03-18T23:19:12.520Z,12.74
2023-03-18T23:21:42.022Z,12.69
2023-03-18T23:24:11.046Z,12.68
2023-03-18T23:26:40.121Z,12.62
2023-03-18T23:29:10.897Z,12.61
2023-03-18T23:31:38.760Z,12.63
2023-03-18T23:34:06.685Z,12.65
2023-03-18T23:36:34.966Z,12.48
2023-03-18T23:39:05.889Z,12.27
2023-03-18T23:41:35.276Z,12.32
2023-03-18T23:44:03.821Z,12.46
2023-03-18T23:46:33.139Z,12.41
2023-03-18T23:49:03.374Z,12.37
2023-03-18T23:51:33.217Z,12.46
2023-03-18T23:54:01.987Z,12.36
2023-03-18T23:56:35.283Z,12.37
2023-03-18T23:59:05.007Z,12.25
